sensor_id;sensor_type;location;lat;lon;timestamp;temperature;humidity
14471;DHT22;7321;50.802;4.336;2023-07-29T00:01:17;20.90;99.90
14471;DHT22;7321;50.802;4.336;2023-07-29T00:03:43;20.80;99.90
14471;DHT22;7321;50.802;4.336;2023-07-29T00:06:09;20.70;99.90
14471;DHT22;7321;50.802;4.336;2023-07-29T00:08:35;20.60;99.90
14471;DHT22;7321;50.802;4.336;2023-07-29T00:11:01;20.50;99.90
14471;DHT22;7321;50.802;4.336;2023-07-29T00:13:27;20.40;99.90
14471;DHT22;7321;50.802;4.336;2023-07-29T00:15:54;20.50;99.90
14471;DHT22;7321;50.802;4.336;2023-07-29T00:18:21;20.50;99.90
14471;DHT22;7321;50.802;4.336;2023-07-29T00:20:47;20.30;99.90
14471;DHT22;7321;50.802;4.336;2023-07-29T00:23:13;20.20;99.90
14471;DHT22;7321;50.802;4.336;2023-07-29T00:25:39;20.30;99.90
14471;DHT22;7321;50.802;4.336;2023-07-29T00:28:06;20.20;99.90
14471;DHT22;7321;50.802;4.336;2023-07-29T00:30:31;20.10;99.90
14471;DHT22;7321;50.802;4.336;2023-07-29T00:32:57;20.10;99.90
14471;DHT22;7321;50.802;4.336;2023-07-29T00:35:23;20.10;99.90
14471;DHT22;7321;50.802;4.336;2023-07-29T00:37:49;20.10;99.90
14471;DHT22;7321;50.802;4.336;2023-07-29T00:40:20;20.00;99.90
14471;DHT22;7321;50.802;4.336;2023-07-29T00:42:46;20.10;99.90
14471;DHT22;7321;50.802;4.336;2023-07-29T00:45:12;20.10;99.90
14471;DHT22;7321;50.802;4.336;2023-07-29T00:47:39;20.10;99.90
14471;DHT22;7321;50.802;4.336;2023-07-29T00:50:06;20.00;99.90
14471;DHT22;7321;50.802;4.336;2023-07-29T00:52:33;20.10;99.90
14471;DHT22;7321;50.802;4.336;2023-07-29T00:54:59;20.10;99.90
14471;DHT22;7321;50.802;4.336;2023-07-29T00:57:25;20.10;99.90
14471;DHT22;7321;50.802;4.336;2023-07-29T00:59:52;20.20;99.90
14471;DHT22;7321;50.802;4.336;2023-07-29T01:02:18;20.20;99.90
14471;DHT22;7321;50.802;4.336;2023-07-29T01:04:43;20.30;99.90
14471;DHT22;7321;50.802;4.336;2023-07-29T01:07:14;20.30;99.90
14471;DHT22;7321;50.802;4.336;2023-07-29T01:09:55;20.30;99.90
14471;DHT22;7321;50.802;4.336;2023-07-29T01:17:52;20.20;99.90
14471;DHT22;7321;50.802;4.336;2023-07-29T01:20:20;20.20;99.90
14471;DHT22;7321;50.802;4.336;2023-07-29T01:22:46;20.20;99.90
14471;DHT22;7321;50.802;4.336;2023-07-29T01:25:15;20.30;99.90
14471;DHT22;7321;50.802;4.336;2023-07-29T01:27:43;20.30;99.90
14471;DHT22;7321;50.802;4.336;2023-07-29T01:30:09;20.30;99.90
14471;DHT22;7321;50.802;4.336;2023-07-29T01:38:07;20.10;99.90
14471;DHT22;7321;50.802;4.336;2023-07-29T01:40:35;20.10;99.90
14471;DHT22;7321;50.802;4.336;2023-07-29T01:43:01;20.20;99.90
14471;DHT22;7321;50.802;4.336;2023-07-29T01:45:28;20.30;99.90
14471;DHT22;7321;50.802;4.336;2023-07-29T01:47:57;20.20;99.90
14471;DHT22;7321;50.802;4.336;2023-07-29T01:50:23;20.20;99.90
14471;DHT22;7321;50.802;4.336;2023-07-29T01:52:48;20.20;99.90
14471;DHT22;7321;50.802;4.336;2023-07-29T01:55:14;20.20;99.90
14471;DHT22;7321;50.802;4.336;2023-07-29T01:57:40;20.20;99.90
14471;DHT22;7321;50.802;4.336;2023-07-29T02:00:06;20.10;99.90
14471;DHT22;7321;50.802;4.336;2023-07-29T02:02:33;19.90;99.90
14471;DHT22;7321;50.802;4.336;2023-07-29T02:04:58;19.80;99.90
14471;DHT22;7321;50.802;4.336;2023-07-29T02:07:24;19.70;99.90
14471;DHT22;7321;50.802;4.336;2023-07-29T02:09:52;19.70;99.90
14471;DHT22;7321;50.802;4.336;2023-07-29T02:12:18;19.80;99.90
14471;DHT22;7321;50.802;4.336;2023-07-29T02:14:44;19.60;99.90
14471;DHT22;7321;50.802;4.336;2023-07-29T02:17:09;19.70;99.90
14471;DHT22;7321;50.802;4.336;2023-07-29T02:19:35;19.80;99.90
14471;DHT22;7321;50.802;4.336;2023-07-29T02:22:01;19.80;99.90
14471;DHT22;7321;50.802;4.336;2023-07-29T02:24:27;19.80;99.90
14471;DHT22;7321;50.802;4.336;2023-07-29T02:26:53;19.90;99.90
14471;DHT22;7321;50.802;4.336;2023-07-29T02:29:19;19.80;99.90
14471;DHT22;7321;50.802;4.336;2023-07-29T02:31:45;19.80;99.90
14471;DHT22;7321;50.802;4.336;2023-07-29T02:34:10;19.90;99.90
14471;DHT22;7321;50.802;4.336;2023-07-29T02:36:36;19.80;99.90
14471;DHT22;7321;50.802;4.336;2023-07-29T02:39:02;19.90;99.90
14471;DHT22;7321;50.802;4.336;2023-07-29T02:41:28;19.90;99.90
14471;DHT22;7321;50.802;4.336;2023-07-29T02:43:54;19.80;99.90
14471;DHT22;7321;50.802;4.336;2023-07-29T02:46:19;19.80;99.90
14471;DHT22;7321;50.802;4.336;2023-07-29T02:48:46;19.80;99.90
14471;DHT22;7321;50.802;4.336;2023-07-29T02:51:12;19.90;99.90
14471;DHT22;7321;50.802;4.336;2023-07-29T02:53:37;19.80;99.90
14471;DHT22;7321;50.802;4.336;2023-07-29T02:56:04;19.80;99.90
14471;DHT22;7321;50.802;4.336;2023-07-29T02:58:32;19.80;99.90
14471;DHT22;7321;50.802;4.336;2023-07-29T03:01:05;19.70;99.90
14471;DHT22;7321;50.802;4.336;2023-07-29T03:03:31;19.60;99.90
14471;DHT22;7321;50.802;4.336;2023-07-29T03:06:03;19.50;99.90
14471;DHT22;7321;50.802;4.336;2023-07-29T03:08:29;19.50;99.90
14471;DHT22;7321;50.802;4.336;2023-07-29T03:10:56;19.50;99.90
14471;DHT22;7321;50.802;4.336;2023-07-29T03:13:22;19.50;99.90
14471;DHT22;7321;50.802;4.336;2023-07-29T03:15:48;19.50;99.90
14471;DHT22;7321;50.802;4.336;2023-07-29T03:18:15;19.40;99.90
14471;DHT22;7321;50.802;4.336;2023-07-29T03:20:41;19.30;99.90
14471;DHT22;7321;50.802;4.336;2023-07-29T03:23:06;19.30;99.90
14471;DHT22;7321;50.802;4.336;2023-07-29T03:25:32;19.20;99.90
14471;DHT22;7321;50.802;4.336;2023-07-29T03:27:58;19.30;99.90
14471;DHT22;7321;50.802;4.336;2023-07-29T03:30:24;19.30;99.90
14471;DHT22;7321;50.802;4.336;2023-07-29T03:32:51;19.40;99.90
14471;DHT22;7321;50.802;4.336;2023-07-29T03:35:17;19.40;99.90
14471;DHT22;7321;50.802;4.336;2023-07-29T03:37:43;19.40;99.90
14471;DHT22;7321;50.802;4.336;2023-07-29T03:40:09;19.40;99.90
14471;DHT22;7321;50.802;4.336;2023-07-29T03:42:36;19.40;99.90
14471;DHT22;7321;50.802;4.336;2023-07-29T03:45:02;19.40;99.90
14471;DHT22;7321;50.802;4.336;2023-07-29T03:47:28;19.20;99.90
14471;DHT22;7321;50.802;4.336;2023-07-29T03:49:53;19.30;99.90
14471;DHT22;7321;50.802;4.336;2023-07-29T03:52:19;19.40;99.90
14471;DHT22;7321;50.802;4.336;2023-07-29T03:54:45;19.40;99.90
14471;DHT22;7321;50.802;4.336;2023-07-29T03:57:11;19.40;99.90
14471;DHT22;7321;50.802;4.336;2023-07-29T03:59:37;19.30;99.90
14471;DHT22;7321;50.802;4.336;2023-07-29T04:02:03;19.30;99.90
14471;DHT22;7321;50.802;4.336;2023-07-29T04:04:29;19.30;99.90
14471;DHT22;7321;50.802;4.336;2023-07-29T04:06:55;19.30;99.90
14471;DHT22;7321;50.802;4.336;2023-07-29T04:09:20;19.30;99.90
14471;DHT22;7321;50.802;4.336;2023-07-29T04:11:46;19.40;99.90
14471;DHT22;7321;50.802;4.336;2023-07-29T04:14:12;19.30;99.90
14471;DHT22;7321;50.802;4.336;2023-07-29T04:16:38;19.20;99.90
14471;DHT22;7321;50.802;4.336;2023-07-29T04:19:03;19.20;99.90
14471;DHT22;7321;50.802;4.336;2023-07-29T04:21:29;19.20;99.90
14471;DHT22;7321;50.802;4.336;2023-07-29T04:23:55;19.10;99.90
14471;DHT22;7321;50.802;4.336;2023-07-29T04:26:21;19.20;99.90
14471;DHT22;7321;50.802;4.336;2023-07-29T04:28:47;19.20;99.90
14471;DHT22;7321;50.802;4.336;2023-07-29T04:31:12;19.20;99.90
14471;DHT22;7321;50.802;4.336;2023-07-29T04:33:38;19.30;99.90
14471;DHT22;7321;50.802;4.336;2023-07-29T04:36:04;19.30;99.90
14471;DHT22;7321;50.802;4.336;2023-07-29T04:38:32;19.40;99.90
14471;DHT22;7321;50.802;4.336;2023-07-29T04:40:58;19.20;99.90
14471;DHT22;7321;50.802;4.336;2023-07-29T04:43:27;19.20;99.90
14471;DHT22;7321;50.802;4.336;2023-07-29T04:45:54;19.20;99.90
14471;DHT22;7321;50.802;4.336;2023-07-29T04:48:20;19.20;99.90
14471;DHT22;7321;50.802;4.336;2023-07-29T04:50:46;19.40;99.90
14471;DHT22;7321;50.802;4.336;2023-07-29T04:53:12;19.40;99.90
14471;DHT22;7321;50.802;4.336;2023-07-29T04:55:37;19.40;99.90
14471;DHT22;7321;50.802;4.336;2023-07-29T04:58:03;19.50;99.90
14471;DHT22;7321;50.802;4.336;2023-07-29T05:00:29;19.40;99.90
14471;DHT22;7321;50.802;4.336;2023-07-29T05:02:55;19.30;99.90
14471;DHT22;7321;50.802;4.336;2023-07-29T05:05:20;19.40;99.90
14471;DHT22;7321;50.802;4.336;2023-07-29T05:07:46;19.40;99.90
14471;DHT22;7321;50.802;4.336;2023-07-29T05:10:12;19.20;99.90
14471;DHT22;7321;50.802;4.336;2023-07-29T05:12:38;19.10;99.90
14471;DHT22;7321;50.802;4.336;2023-07-29T05:15:04;19.10;99.90
14471;DHT22;7321;50.802;4.336;2023-07-29T05:17:30;19.20;99.90
14471;DHT22;7321;50.802;4.336;2023-07-29T05:19:56;19.30;99.90
14471;DHT22;7321;50.802;4.336;2023-07-29T05:22:22;19.30;99.90
14471;DHT22;7321;50.802;4.336;2023-07-29T05:24:48;19.50;99.90
14471;DHT22;7321;50.802;4.336;2023-07-29T05:27:14;19.50;99.90
14471;DHT22;7321;50.802;4.336;2023-07-29T05:29:39;19.60;99.90
14471;DHT22;7321;50.802;4.336;2023-07-29T05:32:05;19.70;99.90
14471;DHT22;7321;50.802;4.336;2023-07-29T05:34:31;19.70;99.90
14471;DHT22;7321;50.802;4.336;2023-07-29T05:36:57;19.70;99.90
14471;DHT22;7321;50.802;4.336;2023-07-29T05:39:23;19.70;99.90
14471;DHT22;7321;50.802;4.336;2023-07-29T05:41:49;19.80;99.90
14471;DHT22;7321;50.802;4.336;2023-07-29T05:44:15;19.70;99.90
14471;DHT22;7321;50.802;4.336;2023-07-29T05:46:41;19.70;99.90
14471;DHT22;7321;50.802;4.336;2023-07-29T05:49:07;19.90;99.90
14471;DHT22;7321;50.802;4.336;2023-07-29T05:51:33;20.20;99.90
14471;DHT22;7321;50.802;4.336;2023-07-29T05:53:59;20.20;99.90
14471;DHT22;7321;50.802;4.336;2023-07-29T05:56:25;20.20;99.90
14471;DHT22;7321;50.802;4.336;2023-07-29T05:58:51;20.20;99.90
14471;DHT22;7321;50.802;4.336;2023-07-29T06:01:16;20.30;99.90
14471;DHT22;7321;50.802;4.336;2023-07-29T06:03:42;20.40;99.90
14471;DHT22;7321;50.802;4.336;2023-07-29T06:06:08;20.50;99.90
14471;DHT22;7321;50.802;4.336;2023-07-29T06:08:34;20.60;99.90
14471;DHT22;7321;50.802;4.336;2023-07-29T06:11:00;20.50;99.90
14471;DHT22;7321;50.802;4.336;2023-07-29T06:13:26;20.70;99.90
14471;DHT22;7321;50.802;4.336;2023-07-29T06:15:52;20.70;99.90
14471;DHT22;7321;50.802;4.336;2023-07-29T06:18:17;20.90;99.90
14471;DHT22;7321;50.802;4.336;2023-07-29T06:20:43;21.10;99.90
14471;DHT22;7321;50.802;4.336;2023-07-29T06:23:09;21.10;99.90
14471;DHT22;7321;50.802;4.336;2023-07-29T06:25:35;21.20;99.90
14471;DHT22;7321;50.802;4.336;2023-07-29T06:28:01;21.30;99.90
14471;DHT22;7321;50.802;4.336;2023-07-29T06:30:27;21.20;99.90
14471;DHT22;7321;50.802;4.336;2023-07-29T06:32:53;21.20;99.90
14471;DHT22;7321;50.802;4.336;2023-07-29T06:35:19;21.30;99.90
14471;DHT22;7321;50.802;4.336;2023-07-29T06:37:44;21.10;99.90
14471;DHT22;7321;50.802;4.336;2023-07-29T06:40:11;21.00;99.90
14471;DHT22;7321;50.802;4.336;2023-07-29T06:42:37;21.10;99.90
14471;DHT22;7321;50.802;4.336;2023-07-29T06:45:04;21.30;99.90
14471;DHT22;7321;50.802;4.336;2023-07-29T06:47:30;21.40;99.90
14471;DHT22;7321;50.802;4.336;2023-07-29T06:49:56;21.30;99.90
14471;DHT22;7321;50.802;4.336;2023-07-29T06:52:22;21.40;99.90
14471;DHT22;7321;50.802;4.336;2023-07-29T06:54:48;21.20;99.90
14471;DHT22;7321;50.802;4.336;2023-07-29T06:57:14;21.20;99.90
14471;DHT22;7321;50.802;4.336;2023-07-29T06:59:39;21.10;99.90
14471;DHT22;7321;50.802;4.336;2023-07-29T07:02:06;21.00;99.90
14471;DHT22;7321;50.802;4.336;2023-07-29T07:04:32;21.00;99.90
14471;DHT22;7321;50.802;4.336;2023-07-29T07:06:58;21.00;99.90
14471;DHT22;7321;50.802;4.336;2023-07-29T07:09:24;21.30;99.90
14471;DHT22;7321;50.802;4.336;2023-07-29T07:11:50;21.40;99.90
14471;DHT22;7321;50.802;4.336;2023-07-29T07:14:16;21.30;99.90
14471;DHT22;7321;50.802;4.336;2023-07-29T07:16:41;21.20;99.90
14471;DHT22;7321;50.802;4.336;2023-07-29T07:19:07;21.30;99.90
14471;DHT22;7321;50.802;4.336;2023-07-29T07:21:33;21.20;99.90
14471;DHT22;7321;50.802;4.336;2023-07-29T07:23:59;21.30;99.90
14471;DHT22;7321;50.802;4.336;2023-07-29T07:26:25;21.40;99.90
14471;DHT22;7321;50.802;4.336;2023-07-29T07:28:50;21.50;99.90
14471;DHT22;7321;50.802;4.336;2023-07-29T07:31:17;21.50;99.90
14471;DHT22;7321;50.802;4.336;2023-07-29T07:33:43;21.50;99.90
14471;DHT22;7321;50.802;4.336;2023-07-29T07:36:09;21.50;99.90
14471;DHT22;7321;50.802;4.336;2023-07-29T07:38:35;21.50;99.90
14471;DHT22;7321;50.802;4.336;2023-07-29T07:41:01;21.60;99.90
14471;DHT22;7321;50.802;4.336;2023-07-29T07:43:27;21.70;99.90
14471;DHT22;7321;50.802;4.336;2023-07-29T07:46:03;21.70;99.90
14471;DHT22;7321;50.802;4.336;2023-07-29T07:48:29;22.00;99.90
14471;DHT22;7321;50.802;4.336;2023-07-29T07:50:55;22.20;99.90
14471;DHT22;7321;50.802;4.336;2023-07-29T07:53:21;22.20;99.90
14471;DHT22;7321;50.802;4.336;2023-07-29T07:55:47;22.40;99.90
14471;DHT22;7321;50.802;4.336;2023-07-29T07:58:12;22.60;99.90
14471;DHT22;7321;50.802;4.336;2023-07-29T08:00:39;22.70;99.90
14471;DHT22;7321;50.802;4.336;2023-07-29T08:03:04;22.70;99.90
14471;DHT22;7321;50.802;4.336;2023-07-29T08:05:30;22.80;99.90
14471;DHT22;7321;50.802;4.336;2023-07-29T08:07:56;22.90;99.90
14471;DHT22;7321;50.802;4.336;2023-07-29T08:10:22;23.00;99.90
14471;DHT22;7321;50.802;4.336;2023-07-29T08:12:48;23.00;99.90
14471;DHT22;7321;50.802;4.336;2023-07-29T08:15:14;23.30;99.90
14471;DHT22;7321;50.802;4.336;2023-07-29T08:17:40;23.40;99.90
14471;DHT22;7321;50.802;4.336;2023-07-29T08:20:06;23.20;99.90
14471;DHT22;7321;50.802;4.336;2023-07-29T08:22:35;23.20;99.90
14471;DHT22;7321;50.802;4.336;2023-07-29T08:25:06;23.20;99.90
14471;DHT22;7321;50.802;4.336;2023-07-29T08:27:40;23.30;99.90
14471;DHT22;7321;50.802;4.336;2023-07-29T08:30:06;23.40;99.90
14471;DHT22;7321;50.802;4.336;2023-07-29T08:32:36;23.60;99.90
14471;DHT22;7321;50.802;4.336;2023-07-29T08:35:02;23.70;99.90
14471;DHT22;7321;50.802;4.336;2023-07-29T08:37:28;23.50;99.90
14471;DHT22;7321;50.802;4.336;2023-07-29T08:39:55;23.60;99.90
14471;DHT22;7321;50.802;4.336;2023-07-29T08:42:21;23.60;99.90
14471;DHT22;7321;50.802;4.336;2023-07-29T08:44:49;23.60;99.90
14471;DHT22;7321;50.802;4.336;2023-07-29T08:47:18;23.40;99.90
14471;DHT22;7321;50.802;4.336;2023-07-29T08:49:46;23.30;99.90
14471;DHT22;7321;50.802;4.336;2023-07-29T08:52:12;23.40;99.90
14471;DHT22;7321;50.802;4.336;2023-07-29T08:54:39;23.50;99.90
14471;DHT22;7321;50.802;4.336;2023-07-29T08:57:06;23.70;99.90
14471;DHT22;7321;50.802;4.336;2023-07-29T08:59:33;23.80;99.90
14471;DHT22;7321;50.802;4.336;2023-07-29T09:01:59;24.10;99.90
14471;DHT22;7321;50.802;4.336;2023-07-29T09:04:24;24.00;99.90
14471;DHT22;7321;50.802;4.336;2023-07-29T09:06:51;24.10;99.90
14471;DHT22;7321;50.802;4.336;2023-07-29T09:09:17;24.10;99.90
14471;DHT22;7321;50.802;4.336;2023-07-29T09:11:43;23.90;99.90
14471;DHT22;7321;50.802;4.336;2023-07-29T09:14:10;24.10;99.90
14471;DHT22;7321;50.802;4.336;2023-07-29T09:16:36;24.40;99.90
14471;DHT22;7321;50.802;4.336;2023-07-29T09:19:03;24.50;99.90
14471;DHT22;7321;50.802;4.336;2023-07-29T09:21:29;24.80;99.90
14471;DHT22;7321;50.802;4.336;2023-07-29T09:23:55;24.70;99.90
14471;DHT22;7321;50.802;4.336;2023-07-29T09:26:28;24.70;99.90
14471;DHT22;7321;50.802;4.336;2023-07-29T09:28:55;24.50;99.90
14471;DHT22;7321;50.802;4.336;2023-07-29T09:31:25;24.50;99.90
14471;DHT22;7321;50.802;4.336;2023-07-29T09:33:59;24.70;99.90
14471;DHT22;7321;50.802;4.336;2023-07-29T09:36:26;24.70;99.90
14471;DHT22;7321;50.802;4.336;2023-07-29T09:38:55;24.70;99.90
14471;DHT22;7321;50.802;4.336;2023-07-29T09:41:23;24.40;99.90
14471;DHT22;7321;50.802;4.336;2023-07-29T09:43:55;24.30;99.90
14471;DHT22;7321;50.802;4.336;2023-07-29T09:46:23;24.20;99.90
14471;DHT22;7321;50.802;4.336;2023-07-29T09:48:53;24.30;99.90
14471;DHT22;7321;50.802;4.336;2023-07-29T09:51:21;24.40;99.90
14471;DHT22;7321;50.802;4.336;2023-07-29T09:53:47;24.30;99.90
14471;DHT22;7321;50.802;4.336;2023-07-29T09:56:14;24.50;99.90
14471;DHT22;7321;50.802;4.336;2023-07-29T09:58:42;24.50;99.90
14471;DHT22;7321;50.802;4.336;2023-07-29T10:01:08;24.60;99.90
14471;DHT22;7321;50.802;4.336;2023-07-29T10:03:35;24.40;99.90
14471;DHT22;7321;50.802;4.336;2023-07-29T10:06:05;24.50;99.90
14471;DHT22;7321;50.802;4.336;2023-07-29T10:08:32;24.40;99.90
14471;DHT22;7321;50.802;4.336;2023-07-29T10:11:07;24.70;99.90
14471;DHT22;7321;50.802;4.336;2023-07-29T10:13:34;25.10;99.90
14471;DHT22;7321;50.802;4.336;2023-07-29T10:16:00;25.30;99.90
14471;DHT22;7321;50.802;4.336;2023-07-29T10:18:31;25.30;99.90
14471;DHT22;7321;50.802;4.336;2023-07-29T10:20:58;25.40;99.90
14471;DHT22;7321;50.802;4.336;2023-07-29T10:23:26;25.30;99.90
14471;DHT22;7321;50.802;4.336;2023-07-29T10:26:01;25.20;99.90
14471;DHT22;7321;50.802;4.336;2023-07-29T10:28:30;24.60;99.90
14471;DHT22;7321;50.802;4.336;2023-07-29T10:30:57;24.30;99.90
14471;DHT22;7321;50.802;4.336;2023-07-29T10:33:24;24.00;99.90
14471;DHT22;7321;50.802;4.336;2023-07-29T10:35:52;23.80;99.90
14471;DHT22;7321;50.802;4.336;2023-07-29T10:38:21;23.80;99.90
14471;DHT22;7321;50.802;4.336;2023-07-29T10:43:23;24.30;99.90
14471;DHT22;7321;50.802;4.336;2023-07-29T10:45:50;24.30;99.90
14471;DHT22;7321;50.802;4.336;2023-07-29T10:51:28;24.40;99.90
14471;DHT22;7321;50.802;4.336;2023-07-29T10:54:02;24.30;99.90
14471;DHT22;7321;50.802;4.336;2023-07-29T10:56:33;24.20;99.90
14471;DHT22;7321;50.802;4.336;2023-07-29T11:01:57;23.90;99.90
14471;DHT22;7321;50.802;4.336;2023-07-29T11:04:28;24.00;99.90
14471;DHT22;7321;50.802;4.336;2023-07-29T11:15:18;23.30;99.90
14471;DHT22;7321;50.802;4.336;2023-07-29T11:17:52;23.10;99.90
14471;DHT22;7321;50.802;4.336;2023-07-29T11:20:28;22.90;99.90
14471;DHT22;7321;50.802;4.336;2023-07-29T11:22:57;22.70;99.90
14471;DHT22;7321;50.802;4.336;2023-07-29T11:25:25;22.50;99.90
14471;DHT22;7321;50.802;4.336;2023-07-29T11:27:52;22.40;99.90
14471;DHT22;7321;50.802;4.336;2023-07-29T11:30:18;22.40;99.90
14471;DHT22;7321;50.802;4.336;2023-07-29T11:32:46;22.60;99.90
14471;DHT22;7321;50.802;4.336;2023-07-29T11:35:14;22.90;99.90
14471;DHT22;7321;50.802;4.336;2023-07-29T11:37:42;23.20;99.90
14471;DHT22;7321;50.802;4.336;2023-07-29T11:40:08;23.70;99.90
14471;DHT22;7321;50.802;4.336;2023-07-29T11:42:55;23.70;99.90
14471;DHT22;7321;50.802;4.336;2023-07-29T11:45:24;23.90;99.90
14471;DHT22;7321;50.802;4.336;2023-07-29T11:47:56;24.60;99.90
14471;DHT22;7321;50.802;4.336;2023-07-29T11:50:24;24.70;99.90
14471;DHT22;7321;50.802;4.336;2023-07-29T11:52:50;24.70;99.90
14471;DHT22;7321;50.802;4.336;2023-07-29T11:55:16;24.90;99.90
14471;DHT22;7321;50.802;4.336;2023-07-29T11:57:43;24.90;99.90
14471;DHT22;7321;50.802;4.336;2023-07-29T12:00:10;25.00;99.90
14471;DHT22;7321;50.802;4.336;2023-07-29T12:02:40;24.60;99.90
14471;DHT22;7321;50.802;4.336;2023-07-29T12:05:07;24.60;99.90
14471;DHT22;7321;50.802;4.336;2023-07-29T12:07:34;24.70;99.90
14471;DHT22;7321;50.802;4.336;2023-07-29T12:10:02;24.80;99.90
14471;DHT22;7321;50.802;4.336;2023-07-29T12:12:29;24.60;99.90
14471;DHT22;7321;50.802;4.336;2023-07-29T12:14:55;24.10;99.90
14471;DHT22;7321;50.802;4.336;2023-07-29T12:17:21;23.50;99.90
14471;DHT22;7321;50.802;4.336;2023-07-29T12:19:47;23.10;99.90
14471;DHT22;7321;50.802;4.336;2023-07-29T12:22:18;22.90;99.90
14471;DHT22;7321;50.802;4.336;2023-07-29T12:24:44;22.60;99.90
14471;DHT22;7321;50.802;4.336;2023-07-29T12:27:11;22.40;99.90
14471;DHT22;7321;50.802;4.336;2023-07-29T12:29:42;22.50;99.90
14471;DHT22;7321;50.802;4.336;2023-07-29T12:32:09;22.20;99.90
14471;DHT22;7321;50.802;4.336;2023-07-29T12:34:37;22.30;99.90
14471;DHT22;7321;50.802;4.336;2023-07-29T12:37:05;22.40;99.90
14471;DHT22;7321;50.802;4.336;2023-07-29T12:39:33;22.60;99.90
14471;DHT22;7321;50.802;4.336;2023-07-29T12:42:00;22.90;99.90
14471;DHT22;7321;50.802;4.336;2023-07-29T12:44:33;22.90;99.90
14471;DHT22;7321;50.802;4.336;2023-07-29T12:47:01;23.20;99.90
14471;DHT22;7321;50.802;4.336;2023-07-29T12:49:30;23.60;99.90
14471;DHT22;7321;50.802;4.336;2023-07-29T12:51:57;24.00;99.90
14471;DHT22;7321;50.802;4.336;2023-07-29T12:54:23;24.20;99.90
14471;DHT22;7321;50.802;4.336;2023-07-29T12:56:49;24.50;99.90
14471;DHT22;7321;50.802;4.336;2023-07-29T12:59:18;24.80;99.90
14471;DHT22;7321;50.802;4.336;2023-07-29T13:01:44;24.80;99.90
14471;DHT22;7321;50.802;4.336;2023-07-29T13:04:11;24.70;99.90
14471;DHT22;7321;50.802;4.336;2023-07-29T13:06:37;24.70;99.90
14471;DHT22;7321;50.802;4.336;2023-07-29T13:09:03;24.90;99.90
14471;DHT22;7321;50.802;4.336;2023-07-29T13:11:29;25.10;99.90
14471;DHT22;7321;50.802;4.336;2023-07-29T13:13:55;24.90;99.90
14471;DHT22;7321;50.802;4.336;2023-07-29T13:16:31;24.70;99.90
14471;DHT22;7321;50.802;4.336;2023-07-29T13:18:57;24.50;99.90
14471;DHT22;7321;50.802;4.336;2023-07-29T13:21:23;24.60;99.90
14471;DHT22;7321;50.802;4.336;2023-07-29T13:23:49;24.70;99.90
14471;DHT22;7321;50.802;4.336;2023-07-29T13:26:24;24.70;99.90
14471;DHT22;7321;50.802;4.336;2023-07-29T13:28:56;24.60;99.90
14471;DHT22;7321;50.802;4.336;2023-07-29T13:31:23;24.80;99.90
14471;DHT22;7321;50.802;4.336;2023-07-29T13:33:49;25.20;99.90
14471;DHT22;7321;50.802;4.336;2023-07-29T13:36:18;25.10;99.90
14471;DHT22;7321;50.802;4.336;2023-07-29T13:38:44;25.20;99.90
14471;DHT22;7321;50.802;4.336;2023-07-29T13:41:13;25.10;99.90
14471;DHT22;7321;50.802;4.336;2023-07-29T13:43:44;25.30;99.90
14471;DHT22;7321;50.802;4.336;2023-07-29T13:46:10;25.40;99.90
14471;DHT22;7321;50.802;4.336;2023-07-29T13:48:38;25.00;99.90
14471;DHT22;7321;50.802;4.336;2023-07-29T13:51:04;25.00;99.90
14471;DHT22;7321;50.802;4.336;2023-07-29T13:53:30;25.00;99.90
14471;DHT22;7321;50.802;4.336;2023-07-29T13:56:03;24.90;99.90
14471;DHT22;7321;50.802;4.336;2023-07-29T13:58:33;24.80;99.90
14471;DHT22;7321;50.802;4.336;2023-07-29T14:01:01;24.80;99.90
14471;DHT22;7321;50.802;4.336;2023-07-29T14:03:32;24.80;99.90
14471;DHT22;7321;50.802;4.336;2023-07-29T14:05:59;25.00;99.90
14471;DHT22;7321;50.802;4.336;2023-07-29T14:08:25;25.10;99.90
14471;DHT22;7321;50.802;4.336;2023-07-29T14:10:51;25.20;99.90
14471;DHT22;7321;50.802;4.336;2023-07-29T14:13:19;25.00;99.90
14471;DHT22;7321;50.802;4.336;2023-07-29T14:15:45;24.90;99.90
14471;DHT22;7321;50.802;4.336;2023-07-29T14:18:11;24.90;99.90
14471;DHT22;7321;50.802;4.336;2023-07-29T14:20:37;25.00;99.90
14471;DHT22;7321;50.802;4.336;2023-07-29T14:23:03;25.10;99.90
14471;DHT22;7321;50.802;4.336;2023-07-29T14:25:28;25.10;99.90
14471;DHT22;7321;50.802;4.336;2023-07-29T14:27:55;25.20;99.90
14471;DHT22;7321;50.802;4.336;2023-07-29T14:30:21;25.20;99.90
14471;DHT22;7321;50.802;4.336;2023-07-29T14:32:47;25.40;99.90
14471;DHT22;7321;50.802;4.336;2023-07-29T14:35:13;25.30;99.90
14471;DHT22;7321;50.802;4.336;2023-07-29T14:37:39;25.00;99.90
14471;DHT22;7321;50.802;4.336;2023-07-29T14:40:06;25.00;99.90
14471;DHT22;7321;50.802;4.336;2023-07-29T14:42:32;25.30;99.90
14471;DHT22;7321;50.802;4.336;2023-07-29T14:44:58;25.40;99.90
14471;DHT22;7321;50.802;4.336;2023-07-29T14:47:23;25.50;99.90
14471;DHT22;7321;50.802;4.336;2023-07-29T14:49:52;25.70;99.90
14471;DHT22;7321;50.802;4.336;2023-07-29T14:52:18;25.70;99.90
14471;DHT22;7321;50.802;4.336;2023-07-29T14:54:44;25.60;99.90
14471;DHT22;7321;50.802;4.336;2023-07-29T14:57:10;25.60;99.90
14471;DHT22;7321;50.802;4.336;2023-07-29T14:59:36;25.80;99.90
14471;DHT22;7321;50.802;4.336;2023-07-29T15:02:02;25.70;99.90
14471;DHT22;7321;50.802;4.336;2023-07-29T15:04:33;25.60;99.90
14471;DHT22;7321;50.802;4.336;2023-07-29T15:06:59;25.50;99.90
14471;DHT22;7321;50.802;4.336;2023-07-29T15:09:26;25.50;99.90
14471;DHT22;7321;50.802;4.336;2023-07-29T15:11:51;25.60;99.90
14471;DHT22;7321;50.802;4.336;2023-07-29T15:14:20;25.50;99.90
14471;DHT22;7321;50.802;4.336;2023-07-29T15:16:46;24.90;99.90
14471;DHT22;7321;50.802;4.336;2023-07-29T15:19:12;25.20;99.90
14471;DHT22;7321;50.802;4.336;2023-07-29T15:21:40;25.50;99.90
14471;DHT22;7321;50.802;4.336;2023-07-29T15:24:05;25.70;99.90
14471;DHT22;7321;50.802;4.336;2023-07-29T15:26:31;25.80;99.90
14471;DHT22;7321;50.802;4.336;2023-07-29T15:29:00;25.60;99.90
14471;DHT22;7321;50.802;4.336;2023-07-29T15:31:25;25.40;99.90
14471;DHT22;7321;50.802;4.336;2023-07-29T15:33:54;25.30;99.90
14471;DHT22;7321;50.802;4.336;2023-07-29T15:36:22;25.10;99.90
14471;DHT22;7321;50.802;4.336;2023-07-29T15:38:51;24.70;99.90
14471;DHT22;7321;50.802;4.336;2023-07-29T15:41:17;24.70;99.90
14471;DHT22;7321;50.802;4.336;2023-07-29T15:43:43;24.80;99.90
14471;DHT22;7321;50.802;4.336;2023-07-29T15:46:09;24.80;99.90
14471;DHT22;7321;50.802;4.336;2023-07-29T15:48:35;25.10;99.90
14471;DHT22;7321;50.802;4.336;2023-07-29T15:51:00;25.20;99.90
14471;DHT22;7321;50.802;4.336;2023-07-29T15:53:26;24.90;99.90
14471;DHT22;7321;50.802;4.336;2023-07-29T15:55:52;25.00;99.90
14471;DHT22;7321;50.802;4.336;2023-07-29T15:58:21;25.20;99.90
14471;DHT22;7321;50.802;4.336;2023-07-29T16:00:47;25.40;99.90
14471;DHT22;7321;50.802;4.336;2023-07-29T16:03:13;25.40;99.90
14471;DHT22;7321;50.802;4.336;2023-07-29T16:05:39;25.40;99.90
14471;DHT22;7321;50.802;4.336;2023-07-29T16:08:05;25.10;99.90
14471;DHT22;7321;50.802;4.336;2023-07-29T16:10:30;25.00;99.90